Terminal Aerodrome Forecast
Issued by NWS

Home | Current Version | Previous Version | Text Only | Print | Product List | Glossary On
Versions: 1 2 3 4 5 6 7 8 9 10 11 12 13 14 15 16
718
FTUS42 KTBW 260530
TAFRSW
TAF
KRSW 260530Z 2606/2706 32004KT P6SM FEW250
     FM260900 VRB03KT 6SM BR FEW015 FEW250
      TEMPO 2610/2613 5SM BR
     FM261300 03009KT P6SM FEW250
     FM261700 06010G15KT P6SM FEW250=

USA.gov is the U.S. government's official web portal to all federal, state and local government web resources and services.